Time;durP1;ratioP1;P1;durP2;ratioP2;P2;SDS_P1;SDS_P2;PMS_P1;PMS_P2;Temp;Humidity;BMP_temperature;BMP_pressure;BME280_temperature;BME280_humidity;BME280_pressure;Samples;Min_cycle;Max_cycle;Signal;HPM_P1;HPM_P2
2022/08/09 00:01:47;;;;;;;1.52;1.00;;;;;;;;;;1877130;75;26335;-42
2022/08/09 00:04:12;;;;;;;2.10;1.00;;;;;;;;;;1869206;76;26734;-43
2022/08/09 00:06:40;;;;;;;1.10;1.10;;;;;;;;;;1876142;75;27182;-49
2022/08/09 00:09:07;;;;;;;1.30;1.20;;;;;;;;;;1873459;76;26729;-42
2022/08/09 00:11:35;;;;;;;1.00;1.00;;;;;;;;;;1875208;76;26368;-40
2022/08/09 00:14:02;;;;;;;1.00;1.00;;;;;;;;;;1873774;76;26643;-43
2022/08/09 00:16:30;;;;;;;1.00;1.00;;;;;;;;;;1870256;76;26241;-43
2022/08/09 00:18:57;;;;;;;0.93;0.93;;;;;;;;;;1865753;75;26248;-43
2022/08/09 00:21:24;;;;;;;1.05;1.05;;;;;;;;;;1870503;76;26257;-45
2022/08/09 00:23:52;;;;;;;1.10;1.10;;;;;;;;;;1871635;76;26252;-42
2022/08/09 00:26:19;;;;;;;1.10;1.10;;;;;;;;;;1855593;76;26296;-44
2022/08/09 00:28:47;;;;;;;2.17;1.10;;;;;;;;;;1847044;75;26802;-40
2022/08/09 00:31:14;;;;;;;1.17;0.93;;;;;;;;;;1866740;76;26792;-43
2022/08/09 00:33:42;;;;;;;1.00;1.00;;;;;;;;;;1879581;76;26347;-40
2022/08/09 00:36:10;;;;;;;1.00;1.00;;;;;;;;;;1864941;76;26778;-41
2022/08/09 00:38:38;;;;;;;1.00;1.00;;;;;;;;;;1879885;76;26288;-44
2022/08/09 00:41:06;;;;;;;1.05;1.05;;;;;;;;;;1868945;76;26311;-43
2022/08/09 00:43:36;;;;;;;1.07;1.07;;;;;;;;;;1861975;76;26272;-43
2022/08/09 00:46:04;;;;;;;1.00;1.00;;;;;;;;;;1877429;76;26263;-41
2022/08/09 00:48:31;;;;;;;1.10;1.10;;;;;;;;;;1871793;76;26175;-41
2022/08/09 00:51:02;;;;;;;1.20;1.10;;;;;;;;;;1890627;75;26191;-42
2022/08/09 00:53:29;;;;;;;1.02;1.02;;;;;;;;;;1884075;75;27360;-40
2022/08/09 00:55:57;;;;;;;1.00;1.00;;;;;;;;;;1869474;76;26266;-41
2022/08/09 00:58:24;;;;;;;1.00;1.00;;;;;;;;;;1870274;76;26365;-44
2022/08/09 01:00:53;;;;;;;1.55;1.00;;;;;;;;;;1867219;75;26567;-42
2022/08/09 01:03:25;;;;;;;0.90;0.90;;;;;;;;;;1856547;76;26318;-42
2022/08/09 01:05:53;;;;;;;0.95;0.95;;;;;;;;;;1875432;75;26751;-40
2022/08/09 01:08:25;;;;;;;1.10;1.10;;;;;;;;;;1880446;76;26706;-40
2022/08/09 01:11:10;;;;;;;0.90;0.90;;;;;;;;;;1859740;76;26711;-41
2022/08/09 01:13:45;;;;;;;1.00;1.00;;;;;;;;;;1877782;76;26265;-43
2022/08/09 01:16:12;;;;;;;0.98;0.98;;;;;;;;;;1874533;75;26317;-43
2022/08/09 01:18:40;;;;;;;1.00;1.00;;;;;;;;;;1857508;76;26191;-40
2022/08/09 01:21:09;;;;;;;0.90;0.90;;;;;;;;;;1864565;76;26287;-40
2022/08/09 01:23:41;;;;;;;1.07;1.07;;;;;;;;;;1861047;76;26261;-40
2022/08/09 01:26:26;;;;;;;1.02;1.02;;;;;;;;;;1866976;76;26264;-41
2022/08/09 01:28:57;;;;;;;1.00;1.00;;;;;;;;;;1881051;76;26301;-40
2022/08/09 01:31:26;;;;;;;1.10;1.10;;;;;;;;;;1858723;75;26728;-41
2022/08/09 01:33:55;;;;;;;1.00;1.00;;;;;;;;;;1873390;76;26260;-41
2022/08/09 01:36:23;;;;;;;0.82;0.82;;;;;;;;;;1869065;75;26198;-44
2022/08/09 01:38:52;;;;;;;1.00;1.00;;;;;;;;;;1866284;75;26244;-42
2022/08/09 01:41:20;;;;;;;1.00;1.00;;;;;;;;;;1866558;75;26672;-43
2022/08/09 01:43:49;;;;;;;1.00;1.00;;;;;;;;;;1859948;76;26705;-40
2022/08/09 01:46:17;;;;;;;1.10;1.10;;;;;;;;;;1877654;76;26225;-40
2022/08/09 01:48:46;;;;;;;2.25;1.30;;;;;;;;;;1878349;76;26780;-40
2022/08/09 01:51:14;;;;;;;1.00;1.00;;;;;;;;;;1878195;76;26237;-41
2022/08/09 01:53:42;;;;;;;1.05;1.05;;;;;;;;;;1853486;76;26235;-40
2022/08/09 01:56:10;;;;;;;1.05;1.05;;;;;;;;;;1869025;76;26292;-42
2022/08/09 01:58:38;;;;;;;1.00;1.00;;;;;;;;;;1881178;76;26242;-42
2022/08/09 02:01:06;;;;;;;1.27;1.10;;;;;;;;;;1879877;76;26277;-40
2022/08/09 02:03:34;;;;;;;0.90;0.90;;;;;;;;;;1880341;76;26329;-40
2022/08/09 02:06:02;;;;;;;1.00;1.00;;;;;;;;;;1859790;76;26261;-40
2022/08/09 02:08:31;;;;;;;1.02;1.02;;;;;;;;;;1880523;76;26241;-42
2022/08/09 02:10:59;;;;;;;2.08;1.02;;;;;;;;;;1872451;76;26316;-40
2022/08/09 02:13:27;;;;;;;0.90;0.90;;;;;;;;;;1881049;76;26725;-42
2022/08/09 02:15:55;;;;;;;1.10;1.10;;;;;;;;;;1869869;76;26258;-41
2022/08/09 02:18:24;;;;;;;1.10;1.10;;;;;;;;;;1871193;76;26771;-40
2022/08/09 02:20:53;;;;;;;1.00;1.00;;;;;;;;;;1881262;76;26262;-41
2022/08/09 02:23:28;;;;;;;1.07;1.00;;;;;;;;;;1871863;76;26264;-41
2022/08/09 02:25:56;;;;;;;1.00;1.00;;;;;;;;;;1859972;76;26947;-41
2022/08/09 02:28:28;;;;;;;0.93;0.93;;;;;;;;;;1881084;76;26301;-40
2022/08/09 02:31:03;;;;;;;1.10;1.10;;;;;;;;;;1875800;75;26296;-41
2022/08/09 02:33:32;;;;;;;1.10;1.10;;;;;;;;;;1881332;76;26238;-41
2022/08/09 02:36:00;;;;;;;0.90;0.90;;;;;;;;;;1880320;76;26250;-42
2022/08/09 02:38:29;;;;;;;1.00;1.00;;;;;;;;;;1880745;76;26245;-40
2022/08/09 02:40:58;;;;;;;0.90;0.90;;;;;;;;;;1863270;75;26257;-41
2022/08/09 02:43:25;;;;;;;1.25;1.00;;;;;;;;;;1884196;76;26344;-43
2022/08/09 02:45:53;;;;;;;1.00;1.00;;;;;;;;;;1853556;76;26276;-43
2022/08/09 02:48:21;;;;;;;1.00;1.00;;;;;;;;;;1849134;76;26247;-42
2022/08/09 02:50:50;;;;;;;0.90;0.90;;;;;;;;;;1872180;76;26242;-40
2022/08/09 02:53:21;;;;;;;1.05;1.05;;;;;;;;;;1863565;76;26237;-40
2022/08/09 02:55:49;;;;;;;0.90;0.90;;;;;;;;;;1850902;76;26656;-43
2022/08/09 02:58:18;;;;;;;0.95;0.95;;;;;;;;;;1856302;76;26252;-43
2022/08/09 03:00:45;;;;;;;0.90;0.90;;;;;;;;;;1855478;77;26261;-43
2022/08/09 03:03:13;;;;;;;1.00;1.00;;;;;;;;;;1855189;76;26274;-41
2022/08/09 03:05:41;;;;;;;1.07;0.90;;;;;;;;;;1854594;76;26728;-47
2022/08/09 03:08:09;;;;;;;0.93;0.93;;;;;;;;;;1791470;79;26737;-41
2022/08/09 03:10:37;;;;;;;1.10;0.90;;;;;;;;;;1794963;78;26310;-40
2022/08/09 03:13:04;;;;;;;0.90;0.90;;;;;;;;;;1790510;79;26303;-41
2022/08/09 03:15:32;;;;;;;0.98;0.90;;;;;;;;;;1797610;79;26294;-40
2022/08/09 03:18:01;;;;;;;1.00;1.00;;;;;;;;;;1815201;79;26211;-40
2022/08/09 03:20:29;;;;;;;1.35;0.90;;;;;;;;;;1813386;77;26297;-41
2022/08/09 03:22:57;;;;;;;1.00;1.00;;;;;;;;;;1781061;79;26907;-41
2022/08/09 03:25:26;;;;;;;0.90;0.90;;;;;;;;;;1822358;77;26273;-44
2022/08/09 03:27:53;;;;;;;0.90;0.90;;;;;;;;;;1781217;78;26611;-42
2022/08/09 03:30:21;;;;;;;1.15;1.15;;;;;;;;;;1810070;78;26261;-40
2022/08/09 03:32:49;;;;;;;1.00;1.00;;;;;;;;;;1792680;78;26729;-41
2022/08/09 03:35:17;;;;;;;0.82;0.82;;;;;;;;;;1799176;78;26280;-40
2022/08/09 03:37:44;;;;;;;0.90;0.90;;;;;;;;;;1799219;79;26733;-40
2022/08/09 03:40:12;;;;;;;1.00;1.00;;;;;;;;;;1799137;78;26281;-41
2022/08/09 03:42:39;;;;;;;1.00;1.00;;;;;;;;;;1806065;77;26373;-40
2022/08/09 03:45:07;;;;;;;0.95;0.95;;;;;;;;;;1817450;77;26267;-40
2022/08/09 03:47:34;;;;;;;1.00;1.00;;;;;;;;;;1844257;77;26307;-42
2022/08/09 03:50:03;;;;;;;0.90;0.90;;;;;;;;;;1852044;77;26259;-42
2022/08/09 03:52:31;;;;;;;0.90;0.90;;;;;;;;;;1821899;79;26272;-42
2022/08/09 03:55:00;;;;;;;0.93;0.93;;;;;;;;;;1815909;78;26319;-39
2022/08/09 03:57:28;;;;;;;0.93;0.93;;;;;;;;;;1810804;79;26340;-40
2022/08/09 03:59:55;;;;;;;1.00;1.00;;;;;;;;;;1815603;77;26314;-42
2022/08/09 04:02:26;;;;;;;0.93;0.93;;;;;;;;;;1825013;77;26768;-40
2022/08/09 04:04:56;;;;;;;0.90;0.90;;;;;;;;;;1809736;78;26338;-40
2022/08/09 04:07:23;;;;;;;1.00;1.00;;;;;;;;;;1823291;78;26231;-41
2022/08/09 04:09:50;;;;;;;0.88;0.88;;;;;;;;;;1822967;78;26270;-39
2022/08/09 04:12:19;;;;;;;0.90;0.90;;;;;;;;;;1840977;77;26290;-40
2022/08/09 04:14:46;;;;;;;0.98;0.98;;;;;;;;;;1835993;76;26339;-42
2022/08/09 04:17:14;;;;;;;0.80;0.80;;;;;;;;;;1839688;77;26755;-41
2022/08/09 04:19:42;;;;;;;0.80;0.80;;;;;;;;;;1823524;77;26267;-41
2022/08/09 04:22:09;;;;;;;0.88;0.88;;;;;;;;;;1846331;77;26216;-42
2022/08/09 04:24:36;;;;;;;0.90;0.90;;;;;;;;;;1824042;77;26668;-41
2022/08/09 04:27:04;;;;;;;0.85;0.85;;;;;;;;;;1817822;78;26734;-41
2022/08/09 04:29:31;;;;;;;0.93;0.88;;;;;;;;;;1821191;78;26337;-41
2022/08/09 04:31:59;;;;;;;0.80;0.80;;;;;;;;;;1823161;78;26254;-40
2022/08/09 04:34:28;;;;;;;0.95;0.95;;;;;;;;;;1849656;77;26754;-42
2022/08/09 04:36:55;;;;;;;0.93;0.93;;;;;;;;;;1811689;78;26334;-41
2022/08/09 04:39:22;;;;;;;0.95;0.95;;;;;;;;;;1797155;79;26255;-40
2022/08/09 04:41:50;;;;;;;0.80;0.80;;;;;;;;;;1829830;77;26249;-39
2022/08/09 04:44:17;;;;;;;1.05;1.05;;;;;;;;;;1822460;78;26294;-40
2022/08/09 04:46:44;;;;;;;1.07;0.90;;;;;;;;;;1846356;77;26232;-41
2022/08/09 04:49:11;;;;;;;0.90;0.90;;;;;;;;;;1807794;79;26246;-41
2022/08/09 04:51:39;;;;;;;0.78;0.78;;;;;;;;;;1810883;77;26235;-41
2022/08/09 04:54:06;;;;;;;0.88;0.88;;;;;;;;;;1828474;78;26270;-40
2022/08/09 04:56:33;;;;;;;0.90;0.90;;;;;;;;;;1813094;78;26255;-41
2022/08/09 04:59:01;;;;;;;0.90;0.90;;;;;;;;;;1820028;79;26314;-41
2022/08/09 05:01:28;;;;;;;1.02;1.02;;;;;;;;;;1805565;79;26821;-41
2022/08/09 05:03:55;;;;;;;1.10;1.10;;;;;;;;;;1823799;77;26279;-41
2022/08/09 05:06:22;;;;;;;1.60;0.80;;;;;;;;;;1842514;78;26245;-40
2022/08/09 05:08:50;;;;;;;1.27;0.80;;;;;;;;;;1838552;78;26379;-44
2022/08/09 05:11:17;;;;;;;0.90;0.90;;;;;;;;;;1824715;77;25772;-42
2022/08/09 05:13:44;;;;;;;0.80;0.80;;;;;;;;;;1845220;77;27358;-45
2022/08/09 05:16:12;;;;;;;0.80;0.80;;;;;;;;;;1823890;77;26751;-42
2022/08/09 05:18:39;;;;;;;0.80;0.80;;;;;;;;;;1837409;77;26314;-40
2022/08/09 05:21:06;;;;;;;1.00;1.00;;;;;;;;;;1820725;78;26299;-45
2022/08/09 05:23:34;;;;;;;0.85;0.85;;;;;;;;;;1823100;78;26813;-44
2022/08/09 05:26:01;;;;;;;2.00;1.00;;;;;;;;;;1851168;76;26371;-48
2022/08/09 05:28:28;;;;;;;1.50;0.98;;;;;;;;;;1831960;77;26308;-41
2022/08/09 05:30:55;;;;;;;0.90;0.90;;;;;;;;;;1830332;77;26268;-41
2022/08/09 05:33:23;;;;;;;0.90;0.90;;;;;;;;;;1845481;78;26254;-42
2022/08/09 05:35:50;;;;;;;1.52;0.90;;;;;;;;;;1853577;77;26755;-45
2022/08/09 05:38:17;;;;;;;1.12;1.12;;;;;;;;;;1853070;77;26803;-41
2022/08/09 05:40:44;;;;;;;1.00;1.00;;;;;;;;;;1853931;77;26828;-41
2022/08/09 05:43:12;;;;;;;2.08;1.00;;;;;;;;;;1846331;77;26240;-42
2022/08/09 05:45:39;;;;;;;1.00;1.00;;;;;;;;;;1838692;77;26351;-40
2022/08/09 05:48:07;;;;;;;0.93;0.93;;;;;;;;;;1844012;77;26389;-41
2022/08/09 05:50:34;;;;;;;1.10;1.00;;;;;;;;;;1842017;76;26373;-46
2022/08/09 05:53:01;;;;;;;1.52;1.42;;;;;;;;;;1844114;77;26288;-40
2022/08/09 05:55:29;;;;;;;1.75;1.00;;;;;;;;;;1829265;78;26346;-40
2022/08/09 05:57:56;;;;;;;1.27;1.20;;;;;;;;;;1826343;77;27423;-40
2022/08/09 06:00:25;;;;;;;1.95;1.30;;;;;;;;;;1845681;78;26273;-39
2022/08/09 06:02:52;;;;;;;2.37;1.02;;;;;;;;;;1814342;79;26544;-40
2022/08/09 06:05:19;;;;;;;3.08;0.90;;;;;;;;;;1867615;75;26249;-40
2022/08/09 06:07:47;;;;;;;1.20;1.10;;;;;;;;;;1870937;75;26250;-41
2022/08/09 06:10:14;;;;;;;3.98;1.22;;;;;;;;;;1858170;76;26207;-40
2022/08/09 06:12:42;;;;;;;1.60;1.07;;;;;;;;;;1851823;76;27335;-44
2022/08/09 06:15:09;;;;;;;1.12;1.10;;;;;;;;;;1875602;76;26262;-43
2022/08/09 06:17:37;;;;;;;4.67;1.30;;;;;;;;;;1870153;76;26276;-41
2022/08/09 06:20:05;;;;;;;3.52;1.30;;;;;;;;;;1855101;75;26660;-40
2022/08/09 06:22:32;;;;;;;5.90;1.85;;;;;;;;;;1861882;76;26853;-42
2022/08/09 06:24:59;;;;;;;2.80;1.52;;;;;;;;;;1861526;76;26767;-44
2022/08/09 06:27:26;;;;;;;6.75;1.82;;;;;;;;;;1862823;76;26725;-44
2022/08/09 06:29:54;;;;;;;2.67;1.50;;;;;;;;;;1865542;76;26261;-40
2022/08/09 06:32:21;;;;;;;7.90;1.90;;;;;;;;;;1862085;76;26265;-44
2022/08/09 06:34:48;;;;;;;8.30;1.82;;;;;;;;;;1847360;76;26268;-42
2022/08/09 06:37:15;;;;;;;5.53;1.85;;;;;;;;;;1873189;76;26200;-41
2022/08/09 06:39:43;;;;;;;3.72;1.77;;;;;;;;;;1876149;76;26355;-41
2022/08/09 06:42:10;;;;;;;5.97;1.90;;;;;;;;;;1871201;76;26309;-40
2022/08/09 06:44:37;;;;;;;4.12;1.82;;;;;;;;;;1858262;76;26265;-41
2022/08/09 06:47:04;;;;;;;4.75;2.00;;;;;;;;;;1842793;76;26209;-43
2022/08/09 06:49:32;;;;;;;4.87;1.75;;;;;;;;;;1849588;77;26285;-43
2022/08/09 06:51:59;;;;;;;3.00;1.90;;;;;;;;;;1842244;77;26267;-42
2022/08/09 06:54:26;;;;;;;5.60;1.77;;;;;;;;;;1832820;77;26267;-44
2022/08/09 06:56:54;;;;;;;3.75;1.65;;;;;;;;;;1846336;77;26809;-48
2022/08/09 06:59:21;;;;;;;2.90;1.50;;;;;;;;;;1851248;77;26811;-43
2022/08/09 07:01:48;;;;;;;5.20;1.80;;;;;;;;;;1848218;76;26744;-43
2022/08/09 07:04:15;;;;;;;5.03;1.60;;;;;;;;;;1849715;77;26334;-40
2022/08/09 07:06:43;;;;;;;1.95;1.40;;;;;;;;;;1850520;77;26262;-42
2022/08/09 07:09:11;;;;;;;2.25;1.37;;;;;;;;;;1843902;77;26391;-39
2022/08/09 07:11:38;;;;;;;1.60;1.50;;;;;;;;;;1843803;77;26338;-41
2022/08/09 07:14:05;;;;;;;3.25;1.30;;;;;;;;;;1841186;77;26353;-40
2022/08/09 07:16:33;;;;;;;2.33;1.20;;;;;;;;;;1845493;77;26338;-44
2022/08/09 07:19:00;;;;;;;1.40;1.40;;;;;;;;;;1850957;77;26351;-41
2022/08/09 07:21:28;;;;;;;7.35;1.40;;;;;;;;;;1848087;77;26220;-43
2022/08/09 07:23:55;;;;;;;2.15;1.32;;;;;;;;;;1841001;77;26256;-41
2022/08/09 07:26:22;;;;;;;2.12;1.27;;;;;;;;;;1850170;77;26335;-39
2022/08/09 07:28:50;;;;;;;3.37;1.50;;;;;;;;;;1839424;76;26358;-46
2022/08/09 07:31:17;;;;;;;2.08;1.40;;;;;;;;;;1838410;77;26293;-43
2022/08/09 07:33:44;;;;;;;3.33;1.40;;;;;;;;;;1840894;77;26248;-43
2022/08/09 07:36:13;;;;;;;1.20;1.20;;;;;;;;;;1835893;77;27686;-41
2022/08/09 07:38:41;;;;;;;1.05;1.05;;;;;;;;;;1851333;77;26771;-44
2022/08/09 07:41:08;;;;;;;3.30;1.40;;;;;;;;;;1846411;77;26212;-42
2022/08/09 07:43:35;;;;;;;2.67;1.22;;;;;;;;;;1835269;77;26245;-43
2022/08/09 07:46:03;;;;;;;1.02;1.00;;;;;;;;;;1820171;77;26267;-40
2022/08/09 07:48:30;;;;;;;1.25;1.15;;;;;;;;;;1796862;79;26570;-41
2022/08/09 07:50:58;;;;;;;2.30;1.00;;;;;;;;;;1798548;79;26347;-41
2022/08/09 07:53:26;;;;;;;1.00;1.00;;;;;;;;;;1792081;79;26813;-39
2022/08/09 07:55:53;;;;;;;2.67;1.20;;;;;;;;;;1779669;79;26274;-42
2022/08/09 07:58:21;;;;;;;1.10;1.10;;;;;;;;;;1788501;79;26356;-40
2022/08/09 08:00:49;;;;;;;1.20;1.10;;;;;;;;;;1810399;79;26315;-39
2022/08/09 08:03:16;;;;;;;1.05;1.00;;;;;;;;;;1778385;79;26240;-41
2022/08/09 08:05:44;;;;;;;1.02;1.02;;;;;;;;;;1823061;78;26667;-41
2022/08/09 08:08:11;;;;;;;0.95;0.95;;;;;;;;;;1819571;77;26286;-41
2022/08/09 08:10:38;;;;;;;0.93;0.93;;;;;;;;;;1776974;79;26234;-40
2022/08/09 08:13:05;;;;;;;2.95;1.05;;;;;;;;;;1794589;79;26881;-42
2022/08/09 08:15:33;;;;;;;1.10;1.00;;;;;;;;;;1792692;79;26694;-41
2022/08/09 08:18:00;;;;;;;1.17;1.10;;;;;;;;;;1813735;77;26271;-44
2022/08/09 08:20:28;;;;;;;1.00;1.00;;;;;;;;;;1819383;78;26378;-40
2022/08/09 08:22:56;;;;;;;2.05;1.10;;;;;;;;;;1814689;77;26372;-42
2022/08/09 08:25:23;;;;;;;1.15;1.00;;;;;;;;;;1781043;79;26363;-43
2022/08/09 08:27:51;;;;;;;0.90;0.90;;;;;;;;;;1794299;79;26293;-40
2022/08/09 08:30:18;;;;;;;1.05;1.05;;;;;;;;;;1806378;79;26440;-45
2022/08/09 08:32:45;;;;;;;0.93;0.93;;;;;;;;;;1798085;78;27053;-43
2022/08/09 08:35:13;;;;;;;0.98;0.98;;;;;;;;;;1820319;77;26817;-41
2022/08/09 08:37:40;;;;;;;0.80;0.80;;;;;;;;;;1786574;79;26296;-41
2022/08/09 08:40:08;;;;;;;1.00;1.00;;;;;;;;;;1794462;78;26266;-43
2022/08/09 08:42:35;;;;;;;1.27;1.15;;;;;;;;;;1794790;78;26366;-42
2022/08/09 08:45:03;;;;;;;0.90;0.90;;;;;;;;;;1792983;79;27921;-45
2022/08/09 08:47:30;;;;;;;1.72;0.90;;;;;;;;;;1871378;76;26729;-45
2022/08/09 08:49:59;;;;;;;0.90;0.90;;;;;;;;;;1872647;76;26237;-41
2022/08/09 08:52:28;;;;;;;2.45;1.10;;;;;;;;;;1880472;76;26213;-42
2022/08/09 08:54:57;;;;;;;1.60;1.00;;;;;;;;;;1880283;76;26333;-44
2022/08/09 08:57:25;;;;;;;0.90;0.90;;;;;;;;;;1872186;76;26202;-47
2022/08/09 08:59:53;;;;;;;2.15;1.00;;;;;;;;;;1870508;76;26740;-47
2022/08/09 09:02:26;;;;;;;1.05;1.05;;;;;;;;;;1875152;76;26277;-47
2022/08/09 09:04:51;;;;;;;0.80;0.80;;;;;;;;;;1877272;76;26311;-50
2022/08/09 09:07:19;;;;;;;0.80;0.80;;;;;;;;;;1871683;76;26800;-50
2022/08/09 09:09:47;;;;;;;0.75;0.75;;;;;;;;;;1873713;76;26674;-47
2022/08/09 09:12:15;;;;;;;0.82;0.82;;;;;;;;;;1878297;76;26264;-46
2022/08/09 09:14:43;;;;;;;0.90;0.90;;;;;;;;;;1880695;76;26195;-45
2022/08/09 09:17:11;;;;;;;0.80;0.80;;;;;;;;;;1858288;76;26289;-47
2022/08/09 09:19:38;;;;;;;1.05;0.88;;;;;;;;;;1861537;76;26371;-45
2022/08/09 09:22:07;;;;;;;2.10;0.82;;;;;;;;;;1863393;76;26279;-41
2022/08/09 09:24:45;;;;;;;0.90;0.90;;;;;;;;;;1878922;76;26245;-41
2022/08/09 09:27:14;;;;;;;0.82;0.82;;;;;;;;;;1880544;76;26260;-42
2022/08/09 09:29:42;;;;;;;0.80;0.80;;;;;;;;;;1880609;76;26194;-42
2022/08/09 09:32:10;;;;;;;0.90;0.90;;;;;;;;;;1880245;76;26636;-44
2022/08/09 09:34:41;;;;;;;0.90;0.90;;;;;;;;;;1861413;76;26228;-42
2022/08/09 09:37:07;;;;;;;2.27;0.70;;;;;;;;;;1880151;76;26784;-40
2022/08/09 09:39:34;;;;;;;0.82;0.82;;;;;;;;;;1876409;76;26670;-43
2022/08/09 09:42:04;;;;;;;0.80;0.80;;;;;;;;;;1859106;76;26281;-42
2022/08/09 09:44:32;;;;;;;0.70;0.70;;;;;;;;;;1875113;76;26369;-42
2022/08/09 09:47:09;;;;;;;0.90;0.90;;;;;;;;;;1883135;76;26292;-44
2022/08/09 09:49:38;;;;;;;0.72;0.72;;;;;;;;;;1883983;76;26889;-43
2022/08/09 09:52:07;;;;;;;0.90;0.90;;;;;;;;;;1881650;76;26805;-42
2022/08/09 09:54:37;;;;;;;0.80;0.80;;;;;;;;;;1878214;76;26744;-45
2022/08/09 09:57:21;;;;;;;1.20;0.70;;;;;;;;;;1888288;76;26261;-45
2022/08/09 09:59:49;;;;;;;0.80;0.80;;;;;;;;;;1866472;76;26762;-43
2022/08/09 10:02:17;;;;;;;0.70;0.70;;;;;;;;;;1887000;74;26206;-41
2022/08/09 10:04:45;;;;;;;0.80;0.80;;;;;;;;;;1874584;76;26264;-41
2022/08/09 10:07:26;;;;;;;0.75;0.75;;;;;;;;;;1869075;76;26269;-40
2022/08/09 10:09:54;;;;;;;0.80;0.80;;;;;;;;;;1875019;76;26347;-42
2022/08/09 10:12:26;;;;;;;0.80;0.80;;;;;;;;;;1886692;76;26728;-44
2022/08/09 10:15:04;;;;;;;0.80;0.80;;;;;;;;;;1886063;76;26736;-42
2022/08/09 10:17:33;;;;;;;0.80;0.80;;;;;;;;;;1887459;76;26637;-40
2022/08/09 10:20:01;;;;;;;0.80;0.80;;;;;;;;;;1886597;76;26261;-41
2022/08/09 10:22:30;;;;;;;0.90;0.90;;;;;;;;;;1885828;76;26647;-40
2022/08/09 10:24:59;;;;;;;0.80;0.80;;;;;;;;;;1886731;76;26304;-42
2022/08/09 10:27:26;;;;;;;0.80;0.80;;;;;;;;;;1887789;76;26249;-42
2022/08/09 10:29:54;;;;;;;0.70;0.70;;;;;;;;;;1874965;76;26201;-41
2022/08/09 10:32:22;;;;;;;1.00;1.00;;;;;;;;;;1874217;76;26798;-41
2022/08/09 10:34:49;;;;;;;1.02;0.90;;;;;;;;;;1883847;76;26314;-41
2022/08/09 10:37:18;;;;;;;0.80;0.80;;;;;;;;;;1889613;76;26790;-41
2022/08/09 10:39:46;;;;;;;0.70;0.70;;;;;;;;;;1889663;76;26197;-45
2022/08/09 10:42:14;;;;;;;0.80;0.80;;;;;;;;;;1887646;76;26238;-47
2022/08/09 10:44:43;;;;;;;0.80;0.80;;;;;;;;;;1878606;76;26264;-43
2022/08/09 10:47:27;;;;;;;0.65;0.65;;;;;;;;;;1858120;76;26300;-47
2022/08/09 10:50:08;;;;;;;0.70;0.70;;;;;;;;;;1863681;76;26297;-44
2022/08/09 10:52:37;;;;;;;0.70;0.70;;;;;;;;;;1853032;76;26347;-43
2022/08/09 10:55:24;;;;;;;0.68;0.68;;;;;;;;;;1846012;75;26205;-43
2022/08/09 10:57:52;;;;;;;0.75;0.75;;;;;;;;;;1853811;76;26289;-44
2022/08/09 11:00:30;;;;;;;0.72;0.72;;;;;;;;;;1867894;76;26602;-49
2022/08/09 11:02:58;;;;;;;0.75;0.75;;;;;;;;;;1864867;76;26338;-42
2022/08/09 11:05:30;;;;;;;0.80;0.80;;;;;;;;;;1871837;76;27576;-42
2022/08/09 11:07:54;;;;;;;0.80;0.80;;;;;;;;;;1870031;76;26279;-47
2022/08/09 11:10:23;;;;;;;0.70;0.70;;;;;;;;;;1877325;76;26231;-48
2022/08/09 11:13:04;;;;;;;0.70;0.70;;;;;;;;;;1858602;76;26262;-47
2022/08/09 11:15:31;;;;;;;0.70;0.70;;;;;;;;;;1863742;75;26319;-46
2022/08/09 11:17:58;;;;;;;0.80;0.80;;;;;;;;;;1857807;76;26265;-45
2022/08/09 11:20:41;;;;;;;0.65;0.65;;;;;;;;;;1861986;76;26249;-48
2022/08/09 11:23:08;;;;;;;0.90;0.90;;;;;;;;;;1869340;76;26278;-44
2022/08/09 11:25:37;;;;;;;0.82;0.82;;;;;;;;;;1874665;76;26310;-43
2022/08/09 11:28:22;;;;;;;0.80;0.80;;;;;;;;;;1875241;76;26742;-46
2022/08/09 11:30:49;;;;;;;0.78;0.78;;;;;;;;;;1874041;76;26180;-43
2022/08/09 11:33:18;;;;;;;0.80;0.80;;;;;;;;;;1875328;76;26241;-44
2022/08/09 11:35:46;;;;;;;0.80;0.80;;;;;;;;;;1870052;76;26211;-45
2022/08/09 11:38:18;;;;;;;0.90;0.90;;;;;;;;;;1872379;76;26250;-52
2022/08/09 11:40:45;;;;;;;0.80;0.80;;;;;;;;;;1873718;75;26942;-46
2022/08/09 11:43:16;;;;;;;0.70;0.70;;;;;;;;;;1853946;76;26299;-44
2022/08/09 11:45:48;;;;;;;0.80;0.80;;;;;;;;;;1865858;76;26635;-46
2022/08/09 11:48:20;;;;;;;0.70;0.70;;;;;;;;;;1877323;76;26756;-48
2022/08/09 11:51:00;;;;;;;0.85;0.85;;;;;;;;;;1877561;76;26719;-43
2022/08/09 11:53:28;;;;;;;0.75;0.75;;;;;;;;;;1880488;76;26269;-46
2022/08/09 11:55:58;;;;;;;0.90;0.90;;;;;;;;;;1885363;76;26366;-46
2022/08/09 11:58:27;;;;;;;0.80;0.80;;;;;;;;;;1884717;76;26253;-40
2022/08/09 12:00:56;;;;;;;0.85;0.85;;;;;;;;;;1883205;76;26280;-44
2022/08/09 12:03:24;;;;;;;0.90;0.90;;;;;;;;;;1880318;76;26322;-48
2022/08/09 12:05:52;;;;;;;1.00;1.00;;;;;;;;;;1880078;76;26262;-48
2022/08/09 12:08:20;;;;;;;0.80;0.80;;;;;;;;;;1883954;76;25873;-42
2022/08/09 12:10:51;;;;;;;1.00;1.00;;;;;;;;;;1888634;76;26330;-47
2022/08/09 12:13:29;;;;;;;0.70;0.70;;;;;;;;;;1877988;76;26274;-42
2022/08/09 12:16:00;;;;;;;1.00;1.00;;;;;;;;;;1847065;76;26266;-47
2022/08/09 12:18:28;;;;;;;0.80;0.80;;;;;;;;;;1885073;76;26312;-44
2022/08/09 12:20:55;;;;;;;0.70;0.70;;;;;;;;;;1883805;76;26243;-43
2022/08/09 12:23:23;;;;;;;0.80;0.80;;;;;;;;;;1889000;76;26276;-41
2022/08/09 12:25:51;;;;;;;0.70;0.70;;;;;;;;;;1884458;76;26691;-43
2022/08/09 12:28:20;;;;;;;0.72;0.72;;;;;;;;;;1888335;76;26223;-41
2022/08/09 12:30:47;;;;;;;1.45;1.10;;;;;;;;;;1888739;74;26216;-41
2022/08/09 12:33:16;;;;;;;1.10;1.10;;;;;;;;;;1888844;76;27015;-45
2022/08/09 12:35:43;;;;;;;0.80;0.80;;;;;;;;;;1888791;76;26265;-43
2022/08/09 12:38:21;;;;;;;1.00;1.00;;;;;;;;;;1888423;76;27162;-41
2022/08/09 12:40:50;;;;;;;1.17;0.90;;;;;;;;;;1885985;76;26321;-43
2022/08/09 12:43:21;;;;;;;2.70;1.00;;;;;;;;;;1886639;76;26263;-42
2022/08/09 12:45:49;;;;;;;1.00;1.00;;;;;;;;;;1888053;76;26264;-40
2022/08/09 12:48:17;;;;;;;0.90;0.90;;;;;;;;;;1886493;76;26575;-44
2022/08/09 12:50:44;;;;;;;0.90;0.90;;;;;;;;;;1885826;76;27402;-46
2022/08/09 12:53:25;;;;;;;1.07;0.90;;;;;;;;;;1884250;76;26242;-45
2022/08/09 12:55:54;;;;;;;0.80;0.80;;;;;;;;;;1884948;76;26208;-46
2022/08/09 12:58:21;;;;;;;0.90;0.90;;;;;;;;;;1879813;76;26309;-41
2022/08/09 13:00:49;;;;;;;0.98;0.80;;;;;;;;;;1886636;76;26312;-40
2022/08/09 13:03:18;;;;;;;0.95;0.88;;;;;;;;;;1887014;76;26316;-43
2022/08/09 13:05:49;;;;;;;0.80;0.80;;;;;;;;;;1887010;76;26268;-43
2022/08/09 13:08:17;;;;;;;0.95;0.95;;;;;;;;;;1888697;76;26986;-43
2022/08/09 13:10:45;;;;;;;0.90;0.90;;;;;;;;;;1885700;75;26292;-44
2022/08/09 13:13:13;;;;;;;1.00;1.00;;;;;;;;;;1885502;76;27247;-44
2022/08/09 13:15:51;;;;;;;0.95;0.88;;;;;;;;;;1884034;76;26760;-40
2022/08/09 13:18:19;;;;;;;0.82;0.82;;;;;;;;;;1886504;76;26245;-42
2022/08/09 13:20:47;;;;;;;0.90;0.90;;;;;;;;;;1883358;74;26661;-44
2022/08/09 13:23:14;;;;;;;1.10;1.10;;;;;;;;;;1869955;76;26302;-41
2022/08/09 13:25:42;;;;;;;3.17;0.80;;;;;;;;;;1885904;76;26256;-41
2022/08/09 13:28:11;;;;;;;0.80;0.80;;;;;;;;;;1887398;76;26417;-42
2022/08/09 13:30:39;;;;;;;0.82;0.82;;;;;;;;;;1887633;76;26271;-39
2022/08/09 13:33:06;;;;;;;0.90;0.90;;;;;;;;;;1883281;76;26252;-39
2022/08/09 13:35:33;;;;;;;0.90;0.90;;;;;;;;;;1888490;76;26576;-41
2022/08/09 13:38:00;;;;;;;0.90;0.90;;;;;;;;;;1876218;76;26308;-42
2022/08/09 13:40:28;;;;;;;0.90;0.90;;;;;;;;;;1889838;76;26801;-44
2022/08/09 13:42:55;;;;;;;0.90;0.90;;;;;;;;;;1889518;76;26753;-43
2022/08/09 13:45:23;;;;;;;0.90;0.90;;;;;;;;;;1874737;76;26753;-41
2022/08/09 13:47:50;;;;;;;1.05;1.05;;;;;;;;;;1885753;75;26283;-42
2022/08/09 13:50:21;;;;;;;0.80;0.80;;;;;;;;;;1875351;75;26252;-41
2022/08/09 13:52:48;;;;;;;1.12;1.12;;;;;;;;;;1879269;75;26264;-42
2022/08/09 13:55:16;;;;;;;0.90;0.90;;;;;;;;;;1893519;75;26422;-42
2022/08/09 13:57:48;;;;;;;1.00;1.00;;;;;;;;;;1896097;75;26305;-40
2022/08/09 14:00:17;;;;;;;0.90;0.90;;;;;;;;;;1895656;75;26391;-39
2022/08/09 14:02:46;;;;;;;0.80;0.80;;;;;;;;;;1895670;75;26773;-40
2022/08/09 14:05:13;;;;;;;0.80;0.80;;;;;;;;;;1884361;75;26307;-40
2022/08/09 14:07:41;;;;;;;0.80;0.80;;;;;;;;;;1887514;75;26329;-41
2022/08/09 14:10:10;;;;;;;1.00;1.00;;;;;;;;;;1887315;74;26263;-44
2022/08/09 14:12:37;;;;;;;0.90;0.90;;;;;;;;;;1899984;74;26355;-40
2022/08/09 14:15:05;;;;;;;0.90;0.90;;;;;;;;;;1895875;75;26230;-41
2022/08/09 14:17:33;;;;;;;0.88;0.88;;;;;;;;;;1895988;75;26329;-43
2022/08/09 14:20:01;;;;;;;0.90;0.90;;;;;;;;;;1889336;75;26252;-40
2022/08/09 14:22:28;;;;;;;0.98;0.98;;;;;;;;;;1878962;75;26322;-42
2022/08/09 14:24:55;;;;;;;0.90;0.90;;;;;;;;;;1894398;75;26304;-40
2022/08/09 14:27:22;;;;;;;0.82;0.82;;;;;;;;;;1895509;75;26362;-40
2022/08/09 14:29:50;;;;;;;0.80;0.80;;;;;;;;;;1879996;75;26201;-44
2022/08/09 14:32:17;;;;;;;0.98;0.98;;;;;;;;;;1882054;75;26695;-44
2022/08/09 14:34:44;;;;;;;0.80;0.80;;;;;;;;;;1889470;75;26241;-43
2022/08/09 14:37:12;;;;;;;0.88;0.88;;;;;;;;;;1878903;75;26341;-41
2022/08/09 14:39:40;;;;;;;0.90;0.90;;;;;;;;;;1890049;75;26279;-45
2022/08/09 14:42:07;;;;;;;0.90;0.90;;;;;;;;;;1892892;75;26371;-46
2022/08/09 14:44:35;;;;;;;0.70;0.70;;;;;;;;;;1893519;75;26409;-42
2022/08/09 14:47:02;;;;;;;0.80;0.80;;;;;;;;;;1879010;75;26650;-42
2022/08/09 14:49:29;;;;;;;0.78;0.78;;;;;;;;;;1856136;75;26735;-43
2022/08/09 14:51:57;;;;;;;0.78;0.78;;;;;;;;;;1856368;76;26241;-41